Time;durP1;ratioP1;P1;durP2;ratioP2;P2;SDS_P1;SDS_P2;PMS_P1;PMS_P2;Temp;Humidity;BMP_temperature;BMP_pressure;BME280_temperature;BME280_humidity;BME280_pressure;Samples;Min_cycle;Max_cycle;Signal;HPM_P1;HPM_P2
2024/01/09 00:00:01;;;;;;;1.67;1.17;;;;;;;-3.99;100.00;103435.94;6278219;28;20052;-79
2024/01/09 00:03:04;;;;;;;4.47;2.47;;;;;;;-4.05;100.00;103445.03;6272582;28;20048;-79
2024/01/09 00:06:05;;;;;;;2.58;1.83;;;;;;;-4.08;100.00;103432.94;6277652;28;20049;-78
2024/01/09 00:09:08;;;;;;;3.40;1.50;;;;;;;-4.16;100.00;103435.09;6278568;28;20053;-79
2024/01/09 00:12:09;;;;;;;4.28;1.40;;;;;;;-4.22;100.00;103427.09;6277905;28;20060;-78
2024/01/09 00:15:11;;;;;;;4.05;2.00;;;;;;;-4.17;100.00;103425.66;6277519;28;20391;-78
2024/01/09 00:18:12;;;;;;;10.43;2.70;;;;;;;-4.34;100.00;103429.03;6277936;28;20071;-78
2024/01/09 00:21:13;;;;;;;6.43;2.42;;;;;;;-4.41;100.00;103424.38;6278267;28;20045;-78
2024/01/09 00:24:16;;;;;;;3.03;1.75;;;;;;;-4.27;100.00;103419.94;6266539;28;20052;-79
2024/01/09 00:27:17;;;;;;;5.25;2.50;;;;;;;-4.20;100.00;103430.59;6252295;28;20061;-78
2024/01/09 00:30:19;;;;;;;9.60;2.92;;;;;;;-4.22;100.00;103432.22;6252962;28;20045;-78
2024/01/09 00:33:20;;;;;;;5.13;2.08;;;;;;;-4.25;100.00;103426.06;6252047;28;20067;-78
2024/01/09 00:36:23;;;;;;;3.45;1.88;;;;;;;-4.19;100.00;103437.50;6252768;28;20045;-79
2024/01/09 00:39:26;;;;;;;5.40;2.10;;;;;;;-4.18;100.00;103433.25;6253061;28;20057;-79
2024/01/09 00:42:27;;;;;;;3.67;2.00;;;;;;;-4.22;100.00;103427.09;6252561;28;20060;-78
2024/01/09 00:45:29;;;;;;;4.90;2.33;;;;;;;-4.21;100.00;103439.13;6252270;28;20060;-79
2024/01/09 00:48:30;;;;;;;5.68;2.40;;;;;;;-4.34;100.00;103435.03;6252764;28;20477;-78
2024/01/09 00:51:31;;;;;;;18.23;2.53;;;;;;;-4.40;100.00;103444.13;6252524;28;20053;-79
2024/01/09 00:54:34;;;;;;;4.10;2.25;;;;;;;-4.36;100.00;103440.88;6252146;28;20049;-79
2024/01/09 00:57:36;;;;;;;5.60;2.10;;;;;;;-4.42;100.00;103438.03;6251784;28;20132;-79
2024/01/09 01:00:38;;;;;;;4.38;2.50;;;;;;;-4.45;100.00;103435.28;6252183;28;20056;-79
2024/01/09 01:03:40;;;;;;;4.65;1.90;;;;;;;-4.42;100.00;103444.03;6251571;28;20056;-78
2024/01/09 01:06:42;;;;;;;3.72;1.63;;;;;;;-4.37;100.00;103444.25;6251543;28;20053;-79
2024/01/09 01:09:44;;;;;;;3.70;2.13;;;;;;;-4.39;100.00;103441.63;6251830;28;20053;-79
2024/01/09 01:12:46;;;;;;;4.65;2.45;;;;;;;-4.39;100.00;103446.75;6251684;28;20045;-79
2024/01/09 01:15:47;;;;;;;3.40;1.90;;;;;;;-4.43;100.00;103454.22;6251280;28;20331;-79
2024/01/09 01:18:49;;;;;;;5.60;2.60;;;;;;;-4.53;100.00;103458.00;6251737;28;20054;-79
2024/01/09 01:21:50;;;;;;;3.28;1.90;;;;;;;-4.49;100.00;103464.19;6251981;28;20045;-78
2024/01/09 01:24:53;;;;;;;4.47;1.90;;;;;;;-4.49;100.00;103471.88;6251707;28;20045;-79
2024/01/09 01:27:54;;;;;;;3.38;2.00;;;;;;;-4.47;100.00;103467.69;6251826;28;20061;-79
2024/01/09 01:30:56;;;;;;;5.85;2.10;;;;;;;-4.53;100.00;103463.13;6251582;28;20045;-79
2024/01/09 01:33:57;;;;;;;4.60;1.55;;;;;;;-4.52;100.00;103472.59;6247467;28;20710;-79
2024/01/09 01:36:58;;;;;;;4.43;2.22;;;;;;;-4.51;100.00;103471.78;6248348;28;20060;-78
2024/01/09 01:40:01;;;;;;;5.30;2.08;;;;;;;-4.58;100.00;103473.97;6265261;28;20341;-78
2024/01/09 01:43:02;;;;;;;2.97;1.38;;;;;;;-4.51;100.00;103470.91;6275227;28;20048;-78
2024/01/09 01:46:04;;;;;;;3.28;1.60;;;;;;;-4.57;100.00;103468.03;6269330;28;20053;-78
2024/01/09 01:49:06;;;;;;;3.00;1.40;;;;;;;-4.79;100.00;103464.31;6251221;28;20056;-78
2024/01/09 01:52:08;;;;;;;5.35;2.58;;;;;;;-4.63;100.00;103464.34;6250698;28;20056;-79
2024/01/09 01:55:11;;;;;;;6.50;2.90;;;;;;;-4.56;100.00;103457.84;6257858;28;20052;-79
2024/01/09 01:58:15;;;;;;;3.83;1.65;;;;;;;-4.50;100.00;103462.41;6275521;28;20045;-78
2024/01/09 02:01:17;;;;;;;5.18;1.63;;;;;;;-4.54;100.00;103466.50;6274703;28;20049;-78
2024/01/09 02:04:20;;;;;;;3.33;1.83;;;;;;;-4.62;100.00;103466.09;6272535;28;20052;-78
2024/01/09 02:07:24;;;;;;;3.72;1.38;;;;;;;-4.64;100.00;103469.38;6274755;28;20460;-79
2024/01/09 02:10:27;;;;;;;6.00;2.30;;;;;;;-4.77;100.00;103465.25;6270821;28;20049;-79
2024/01/09 02:13:28;;;;;;;4.72;2.08;;;;;;;-4.76;100.00;103464.50;6273728;28;20060;-79
2024/01/09 02:16:30;;;;;;;3.42;1.85;;;;;;;-4.72;100.00;103469.00;6275098;28;20048;-79
2024/01/09 02:19:31;;;;;;;2.47;1.60;;;;;;;-4.78;100.00;103463.50;6275265;28;20049;-79
2024/01/09 02:22:32;;;;;;;9.70;2.75;;;;;;;-4.88;100.00;103461.25;6267743;28;20536;-79
2024/01/09 02:25:35;;;;;;;5.15;2.28;;;;;;;-4.85;100.00;103459.75;6262452;28;20041;-79
2024/01/09 02:28:46;;;;;;;9.32;2.50;;;;;;;-4.88;100.00;103454.44;6273236;28;20055;-78
2024/01/09 02:31:49;;;;;;;5.55;2.35;;;;;;;-4.83;100.00;103452.13;6253594;28;20353;-79
2024/01/09 02:34:51;;;;;;;6.25;2.60;;;;;;;-4.88;100.00;103458.69;6268264;28;20048;-79
2024/01/09 02:37:53;;;;;;;3.58;2.22;;;;;;;-4.84;100.00;103460.63;6270583;28;20060;-79
2024/01/09 02:40:54;;;;;;;6.70;2.22;;;;;;;-4.82;100.00;103450.44;6275179;28;20045;-79
2024/01/09 02:43:55;;;;;;;4.65;1.73;;;;;;;-4.86;100.00;103455.44;6269304;28;20056;-79
2024/01/09 02:46:58;;;;;;;4.78;2.05;;;;;;;-4.90;100.00;103458.63;6274581;28;20361;-79
2024/01/09 02:49:59;;;;;;;8.95;2.90;;;;;;;-5.02;100.00;103455.38;6275176;28;20060;-78
2024/01/09 02:53:01;;;;;;;6.35;2.92;;;;;;;-5.25;100.00;103448.13;6274857;28;20365;-79
2024/01/09 02:56:02;;;;;;;5.53;2.08;;;;;;;-5.30;100.00;103452.13;6274540;28;20052;-79
2024/01/09 02:59:03;;;;;;;3.25;2.20;;;;;;;-5.33;100.00;103457.94;6274928;28;20049;-79
2024/01/09 03:02:06;;;;;;;3.70;1.60;;;;;;;-5.41;100.00;103452.38;6260297;28;20080;-78
2024/01/09 03:05:08;;;;;;;5.30;2.25;;;;;;;-5.36;100.00;103452.66;6265381;28;20045;-79
2024/01/09 03:08:09;;;;;;;2.15;1.08;;;;;;;-5.39;100.00;103452.50;6274771;28;20053;-79
2024/01/09 03:11:11;;;;;;;4.55;1.90;;;;;;;-5.36;100.00;103451.00;6274615;28;20049;-79
2024/01/09 03:14:12;;;;;;;10.73;2.83;;;;;;;-5.39;100.00;103455.06;6274830;28;20060;-79
2024/01/09 03:17:15;;;;;;;3.83;2.10;;;;;;;-5.44;100.00;103457.38;6274290;28;20055;-79
2024/01/09 03:20:16;;;;;;;5.55;1.83;;;;;;;-5.38;100.00;103449.13;6276972;28;20060;-79
2024/01/09 03:23:17;;;;;;;4.15;2.30;;;;;;;-5.43;100.00;103453.13;6279010;28;20327;-79
2024/01/09 03:26:21;;;;;;;6.28;1.52;;;;;;;-5.47;100.00;103454.63;6275120;28;20358;-79
2024/01/09 03:29:22;;;;;;;6.93;2.30;;;;;;;-5.61;100.00;103448.72;6253051;28;20065;-79
2024/01/09 03:32:25;;;;;;;8.45;2.25;;;;;;;-5.53;100.00;103453.41;6254079;28;20591;-79
2024/01/09 03:35:26;;;;;;;5.22;1.75;;;;;;;-5.49;100.00;103450.22;6253825;28;20509;-79
2024/01/09 03:38:27;;;;;;;3.33;2.20;;;;;;;-5.53;100.00;103453.41;6253883;28;20049;-79
2024/01/09 03:41:29;;;;;;;4.20;2.08;;;;;;;-5.58;100.00;103447.16;6253519;28;20076;-79
2024/01/09 03:44:30;;;;;;;1.17;1.08;;;;;;;-5.62;100.00;103448.66;6253822;28;20056;-79
2024/01/09 03:47:33;;;;;;;6.53;1.70;;;;;;;-5.64;100.00;103445.97;6253738;28;20056;-79
2024/01/09 03:50:34;;;;;;;3.90;2.47;;;;;;;-5.64;100.00;103451.09;6261149;28;20060;-79
2024/01/09 03:53:35;;;;;;;7.20;2.35;;;;;;;-5.67;100.00;103445.81;6273299;28;20089;-79
2024/01/09 03:56:36;;;;;;;4.30;2.22;;;;;;;-5.56;100.00;103437.84;6278269;28;20448;-78
2024/01/09 03:59:38;;;;;;;9.75;2.78;;;;;;;-5.56;100.00;103438.72;6278826;28;20060;-78
2024/01/09 04:02:40;;;;;;;7.88;2.45;;;;;;;-5.57;100.00;103439.53;6278117;28;20437;-79
2024/01/09 04:05:42;;;;;;;3.25;1.67;;;;;;;-5.66;100.00;103436.47;6277990;28;20049;-80
2024/01/09 04:08:43;;;;;;;8.18;3.83;;;;;;;-5.57;100.00;103434.41;6278174;28;20053;-79
2024/01/09 04:11:45;;;;;;;15.07;2.33;;;;;;;-5.68;100.00;103432.91;6278428;28;20120;-79
2024/01/09 04:14:46;;;;;;;7.22;1.65;;;;;;;-5.61;100.00;103438.47;6277841;28;20068;-79
2024/01/09 04:17:49;;;;;;;4.70;1.30;;;;;;;-5.61;100.00;103429.91;6277579;28;20044;-79
2024/01/09 04:20:50;;;;;;;5.22;2.47;;;;;;;-5.64;100.00;103430.59;6277195;28;20057;-79
2024/01/09 04:23:52;;;;;;;10.98;3.15;;;;;;;-5.64;100.00;103432.28;6255201;28;20045;-78
2024/01/09 04:26:53;;;;;;;3.97;1.70;;;;;;;-5.61;100.00;103432.47;6275921;28;20064;-79
2024/01/09 04:29:54;;;;;;;6.05;1.67;;;;;;;-5.58;100.00;103436.91;6252284;28;20057;-78
2024/01/09 04:32:57;;;;;;;4.85;3.00;;;;;;;-5.58;100.00;103432.66;6243759;28;20363;-78
2024/01/09 04:35:58;;;;;;;5.50;2.45;;;;;;;-5.54;100.00;103431.13;6241101;28;20037;-79
2024/01/09 04:39:00;;;;;;;8.48;1.77;;;;;;;-5.56;100.00;103433.59;6240815;28;20350;-79
2024/01/09 04:42:02;;;;;;;5.57;2.60;;;;;;;-5.67;100.00;103434.69;6238690;28;20052;-79
2024/01/09 04:45:04;;;;;;;9.50;3.08;;;;;;;-5.72;100.00;103434.44;6254011;28;20044;-79
2024/01/09 04:48:07;;;;;;;7.53;2.38;;;;;;;-5.74;100.00;103430.00;6241000;28;20049;-73
2024/01/09 04:51:09;;;;;;;6.90;2.03;;;;;;;-5.72;100.00;103437.00;6240849;28;20049;-73
2024/01/09 04:54:10;;;;;;;4.38;2.25;;;;;;;-5.70;100.00;103426.84;6240227;28;20055;-73
2024/01/09 04:57:11;;;;;;;5.78;2.50;;;;;;;-5.65;100.00;103436.53;6251864;28;20052;-72
2024/01/09 05:00:14;;;;;;;6.20;2.45;;;;;;;-5.75;100.00;103434.25;6256723;28;20045;-72
2024/01/09 05:03:17;;;;;;;4.63;2.72;;;;;;;-5.75;100.00;103431.69;6276759;28;20049;-73
2024/01/09 05:06:18;;;;;;;9.15;2.63;;;;;;;-5.79;100.00;103436.56;6276355;28;20049;-72
2024/01/09 05:09:19;;;;;;;5.38;2.53;;;;;;;-5.75;100.00;103434.25;6277008;28;20049;-72
2024/01/09 05:12:21;;;;;;;5.63;2.17;;;;;;;-5.76;100.00;103437.63;6276711;28;20060;-72
2024/01/09 05:15:23;;;;;;;5.22;2.40;;;;;;;-5.74;100.00;103447.94;6271902;28;20045;-72
2024/01/09 05:18:26;;;;;;;3.03;1.83;;;;;;;-5.78;100.00;103438.31;6274335;28;20048;-72
2024/01/09 05:21:27;;;;;;;4.63;2.15;;;;;;;-5.70;100.00;103437.97;6276555;28;20442;-72
2024/01/09 05:24:28;;;;;;;7.25;3.58;;;;;;;-5.75;100.00;103433.38;6276248;28;20045;-72
2024/01/09 05:27:30;;;;;;;17.85;5.97;;;;;;;-5.78;100.00;103438.31;6276266;28;20045;-73
2024/01/09 05:30:31;;;;;;;11.77;4.07;;;;;;;-5.81;100.00;103433.00;6276326;28;20045;-73
2024/01/09 05:33:35;;;;;;;20.20;5.57;;;;;;;-5.84;100.00;103435.41;6276204;28;20060;-72
2024/01/09 05:36:36;;;;;;;18.60;7.00;;;;;;;-5.85;100.00;103434.53;6275350;28;20127;-72
2024/01/09 05:39:38;;;;;;;8.27;3.85;;;;;;;-5.85;100.00;103437.09;6276238;28;20052;-72
2024/01/09 05:42:39;;;;;;;7.03;2.17;;;;;;;-5.95;100.00;103447.63;6275302;28;20053;-72
2024/01/09 05:45:40;;;;;;;6.72;3.15;;;;;;;-5.94;100.00;103447.72;6275555;28;20045;-72
2024/01/09 05:48:44;;;;;;;5.00;3.20;;;;;;;-5.92;100.00;103450.34;6276096;28;20053;-72
2024/01/09 05:51:45;;;;;;;4.78;2.78;;;;;;;-5.95;100.00;103455.28;6275669;28;20049;-72
2024/01/09 05:54:47;;;;;;;6.18;2.83;;;;;;;-5.93;100.00;103454.59;6275760;28;20056;-72
2024/01/09 05:57:48;;;;;;;7.63;2.38;;;;;;;-5.98;100.00;103460.25;6275168;28;20045;-72
2024/01/09 06:00:49;;;;;;;4.63;1.83;;;;;;;-5.94;100.00;103454.53;6275897;28;20075;-72
2024/01/09 06:03:52;;;;;;;5.78;2.40;;;;;;;-6.02;100.00;103460.88;6275575;28;20052;-72
2024/01/09 06:06:53;;;;;;;4.22;2.28;;;;;;;-6.05;100.00;103458.13;6274927;28;20072;-72
2024/01/09 06:09:55;;;;;;;3.08;2.05;;;;;;;-5.96;100.00;103461.22;6275559;28;20063;-72
2024/01/09 06:12:56;;;;;;;6.80;3.38;;;;;;;-5.96;100.00;103456.97;6275580;28;20107;-73
2024/01/09 06:15:57;;;;;;;3.40;1.92;;;;;;;-6.02;100.00;103468.56;6274879;28;20052;-72
2024/01/09 06:19:00;;;;;;;4.97;2.08;;;;;;;-5.93;100.00;103466.53;6275798;28;20437;-72
2024/01/09 06:22:01;;;;;;;5.18;2.03;;;;;;;-5.91;100.00;103460.66;6255970;28;20061;-72
2024/01/09 06:25:03;;;;;;;3.85;2.00;;;;;;;-5.91;100.00;103463.22;6245107;28;20053;-72
2024/01/09 06:28:05;;;;;;;3.10;1.70;;;;;;;-5.89;100.00;103460.75;6240823;28;20045;-72
2024/01/09 06:31:06;;;;;;;7.00;2.22;;;;;;;-5.94;100.00;103468.19;6240170;28;20056;-72
2024/01/09 06:34:09;;;;;;;9.70;3.05;;;;;;;-6.04;100.00;103465.91;6236365;28;20446;-73
2024/01/09 06:37:11;;;;;;;8.20;4.00;;;;;;;-6.05;100.00;103460.69;6238221;28;20049;-72
2024/01/09 06:40:12;;;;;;;9.15;4.35;;;;;;;-6.08;100.00;103469.09;6238156;28;20075;-72
2024/01/09 06:43:14;;;;;;;6.90;2.75;;;;;;;-6.16;100.00;103472.84;6239062;28;20059;-71
2024/01/09 06:46:15;;;;;;;6.50;2.75;;;;;;;-6.25;100.00;103462.97;6240794;28;20422;-72
2024/01/09 06:49:18;;;;;;;13.00;4.70;;;;;;;-6.29;100.00;103468.69;6237640;28;20052;-72
2024/01/09 06:52:19;;;;;;;12.05;5.22;;;;;;;-6.30;100.00;103466.03;6235718;28;20049;-73
2024/01/09 06:55:20;;;;;;;25.73;9.63;;;;;;;-6.20;100.00;103461.56;6227580;28;20050;-72
2024/01/09 06:58:22;;;;;;;10.25;3.92;;;;;;;-6.26;100.00;103462.88;6230574;28;20473;-72
2024/01/09 07:01:23;;;;;;;3.35;2.35;;;;;;;-6.35;100.00;103465.78;6230630;28;20050;-72
2024/01/09 07:04:26;;;;;;;6.75;2.38;;;;;;;-6.33;100.00;103466.72;6232757;28;20054;-72
2024/01/09 07:07:28;;;;;;;3.28;1.95;;;;;;;-6.39;100.00;103462.13;6276736;28;20053;-72
2024/01/09 07:10:29;;;;;;;7.10;2.38;;;;;;;-6.41;100.00;103473.06;6279619;28;20045;-72
2024/01/09 07:13:30;;;;;;;10.77;3.70;;;;;;;-6.31;100.00;103467.72;6279520;28;20049;-73
2024/01/09 07:16:32;;;;;;;2.35;2.08;;;;;;;-6.33;100.00;103469.28;6259375;28;20060;-72
2024/01/09 07:19:34;;;;;;;4.13;1.90;;;;;;;-6.22;100.00;103475.94;6254924;28;20430;-72
2024/01/09 07:22:36;;;;;;;4.43;1.92;;;;;;;-6.21;100.00;103464.03;6254506;28;20053;-72
2024/01/09 07:25:37;;;;;;;4.18;2.10;;;;;;;-6.21;100.00;103484.50;6254264;28;20041;-73
2024/01/09 07:28:38;;;;;;;3.38;1.90;;;;;;;-6.14;100.00;103473.81;6241398;28;20049;-73
2024/01/09 07:31:39;;;;;;;7.05;3.22;;;;;;;-6.19;100.00;103485.47;6241607;28;20041;-73
2024/01/09 07:34:42;;;;;;;13.52;2.38;;;;;;;-6.14;100.00;103477.25;6239438;28;20049;-73
2024/01/09 07:37:44;;;;;;;8.73;2.42;;;;;;;-6.14;100.00;103482.38;6238758;28;20056;-73
2024/01/09 07:40:45;;;;;;;1.83;1.30;;;;;;;-6.09;100.00;103480.09;6243242;28;20053;-72
2024/01/09 07:43:47;;;;;;;8.10;2.20;;;;;;;-6.02;100.00;103482.22;6252538;28;20320;-73
2024/01/09 07:46:48;;;;;;;5.45;1.77;;;;;;;-6.18;100.00;103477.88;6242486;28;20037;-73
2024/01/09 07:49:51;;;;;;;3.92;1.65;;;;;;;-6.12;100.00;103479.94;6241602;28;20053;-73
2024/01/09 07:52:52;;;;;;;5.47;1.70;;;;;;;-6.18;100.00;103474.44;6241576;28;20056;-74
2024/01/09 07:55:53;;;;;;;6.43;2.33;;;;;;;-6.17;100.00;103478.78;6239726;28;20046;-72
2024/01/09 07:58:55;;;;;;;6.15;2.92;;;;;;;-6.15;100.00;103490.84;6242815;28;20046;-75
2024/01/09 08:01:56;;;;;;;12.68;4.30;;;;;;;-6.15;100.00;103489.97;6247169;28;20077;-74
2024/01/09 08:04:59;;;;;;;8.45;4.78;;;;;;;-6.20;100.00;103491.38;6248953;28;20114;-74
2024/01/09 08:08:01;;;;;;;5.78;2.92;;;;;;;-6.37;100.00;103485.25;6247008;28;20050;-73
2024/01/09 08:11:02;;;;;;;9.00;3.80;;;;;;;-6.36;100.00;103487.00;6261777;28;20049;-73
2024/01/09 08:14:03;;;;;;;6.13;2.80;;;;;;;-6.40;100.00;103490.19;6255137;28;20050;-73
2024/01/09 08:17:05;;;;;;;5.53;2.03;;;;;;;-6.31;100.00;103495.88;6261951;28;20045;-74
2024/01/09 08:20:08;;;;;;;10.35;4.07;;;;;;;-6.26;100.00;103494.47;6272066;28;20046;-75
2024/01/09 08:23:10;;;;;;;18.55;7.82;;;;;;;-6.20;100.00;103502.50;6271957;28;20052;-73
2024/01/09 08:26:13;;;;;;;9.88;2.88;;;;;;;-6.10;100.00;103501.38;6274648;28;20073;-73
2024/01/09 08:29:15;;;;;;;12.70;2.60;;;;;;;-6.05;100.00;103499.94;6276880;28;20056;-73
2024/01/09 08:32:18;;;;;;;5.85;2.60;;;;;;;-6.01;100.00;103495.91;6251762;28;20364;-73
2024/01/09 08:35:20;;;;;;;6.55;2.88;;;;;;;-5.94;100.00;103496.38;6262319;28;20049;-74
2024/01/09 08:38:22;;;;;;;6.05;3.13;;;;;;;-5.85;100.00;103501.09;6277081;28;20064;-73
2024/01/09 08:41:23;;;;;;;12.52;2.97;;;;;;;-5.70;100.00;103501.97;6277507;28;20064;-73
2024/01/09 08:44:25;;;;;;;4.55;2.65;;;;;;;-5.71;100.00;103505.34;6277081;28;20067;-73
2024/01/09 08:47:27;;;;;;;4.75;2.95;;;;;;;-5.80;100.00;103509.94;6252444;28;20152;-73
2024/01/09 08:50:30;;;;;;;5.00;2.72;;;;;;;-5.97;100.00;103516.66;6273803;28;20056;-81
2024/01/09 08:53:31;;;;;;;3.78;2.25;;;;;;;-5.94;100.00;103513.41;6275457;28;20049;-80
2024/01/09 08:56:32;;;;;;;7.53;3.33;;;;;;;-5.85;100.00;103515.59;6276589;28;20041;-80
2024/01/09 08:59:34;;;;;;;15.35;3.60;;;;;;;-5.80;100.00;103516.75;6276355;28;20053;-80
2024/01/09 09:02:35;;;;;;;3.47;2.33;;;;;;;-5.78;100.00;103515.13;6276673;28;20053;-80
2024/01/09 09:05:38;;;;;;;8.30;2.83;;;;;;;-5.76;100.00;103519.56;6262585;28;20042;-80
2024/01/09 09:08:39;;;;;;;10.18;2.65;;;;;;;-5.73;100.00;103509.47;6272818;28;20352;-80
2024/01/09 09:11:41;;;;;;;6.15;2.17;;;;;;;-5.63;100.00;103510.91;6272384;28;20052;-80
2024/01/09 09:14:42;;;;;;;11.25;2.97;;;;;;;-5.61;100.00;103509.31;6276573;28;20053;-80
2024/01/09 09:17:43;;;;;;;4.03;2.22;;;;;;;-5.51;100.00;103520.97;6241647;28;20045;-81
2024/01/09 09:20:46;;;;;;;5.75;2.25;;;;;;;-5.59;100.00;103523.09;6240269;28;20346;-80
2024/01/09 09:23:47;;;;;;;6.95;2.40;;;;;;;-5.61;100.00;103517.00;6245071;28;20052;-80
2024/01/09 09:26:49;;;;;;;11.13;3.05;;;;;;;-5.54;100.00;103513.09;6245102;28;20048;-80
2024/01/09 09:29:52;;;;;;;7.07;2.58;;;;;;;-5.48;100.00;103519.47;6238690;28;20049;-81
2024/01/09 09:32:54;;;;;;;7.32;3.03;;;;;;;-5.30;100.00;103504.25;6238430;28;20049;-80
2024/01/09 09:35:57;;;;;;;7.55;2.67;;;;;;;-5.42;100.00;103511.25;6245480;28;20076;-82
2024/01/09 09:38:58;;;;;;;10.55;3.03;;;;;;;-5.39;100.00;103507.19;6250223;28;20458;-81
2024/01/09 09:42:00;;;;;;;6.25;2.58;;;;;;;-5.36;100.00;103499.69;6240126;28;20049;-80
2024/01/09 09:45:01;;;;;;;4.35;2.33;;;;;;;-5.31;100.00;103496.47;6241548;28;20060;-80
2024/01/09 09:48:04;;;;;;;3.70;2.42;;;;;;;-5.32;100.00;103499.81;6239567;28;20177;-80
2024/01/09 09:51:09;;;;;;;5.35;2.15;;;;;;;-5.32;100.00;103492.13;6242277;28;20049;-79
2024/01/09 09:54:13;;;;;;;8.85;3.42;;;;;;;-5.27;100.00;103500.97;6251059;28;20056;-79
2024/01/09 09:57:16;;;;;;;9.35;1.98;;;;;;;-5.04;100.00;103497.09;6250531;28;20102;-78
2024/01/09 10:00:19;;;;;;;16.15;5.05;;;;;;;-5.03;100.00;103506.59;6251093;28;20057;-82
2024/01/09 10:03:22;;;;;;;13.77;2.97;;;;;;;-5.06;100.00;103504.72;6250735;28;20128;-78
2024/01/09 10:06:28;;;;;;;5.85;1.95;;;;;;;-5.22;100.00;103494.44;6249676;28;20528;-81
2024/01/09 10:09:34;;;;;;;6.38;2.58;;;;;;;-5.01;100.00;103495.59;6250779;28;20053;-81
2024/01/09 10:12:36;;;;;;;8.40;2.22;;;;;;;-4.91;100.00;103485.03;6250495;28;20442;-80
2024/01/09 10:15:56;;;;;;;3.45;1.85;;;;;;;-4.82;100.00;103492.34;6249737;28;20046;-81
2024/01/09 10:18:57;;;;;;;7.20;2.88;;;;;;;-4.79;100.00;103489.09;6250990;28;20140;-81
2024/01/09 10:22:00;;;;;;;6.40;2.67;;;;;;;-4.68;100.00;103486.31;6250074;28;20060;-80
2024/01/09 10:25:04;;;;;;;6.65;2.63;;;;;;;-4.70;100.00;103485.31;6250069;28;20434;-78
2024/01/09 10:28:08;;;;;;;3.95;1.73;;;;;;;-4.73;100.00;103485.16;6250482;28;20041;-76
2024/01/09 10:31:10;;;;;;;5.22;2.60;;;;;;;-4.73;100.00;103477.47;6249956;28;20077;-76
2024/01/09 10:34:11;;;;;;;5.55;2.28;;;;;;;-4.51;100.00;103479.47;6250259;28;20056;-77
2024/01/09 10:37:14;;;;;;;10.65;4.55;;;;;;;-4.31;100.00;103482.19;6249568;28;20045;-74
2024/01/09 10:40:15;;;;;;;6.65;2.28;;;;;;;-4.47;100.00;103478.84;6250437;28;20053;-80
2024/01/09 10:43:17;;;;;;;7.47;3.13;;;;;;;-4.41;100.00;103475.72;6249755;28;20049;-78
2024/01/09 10:46:24;;;;;;;2.97;2.10;;;;;;;-4.32;100.00;103463.34;6249747;28;20060;-79
2024/01/09 10:49:26;;;;;;;2.65;1.70;;;;;;;-4.19;100.00;103470.00;6250174;28;20072;-78
2024/01/09 10:52:30;;;;;;;8.50;2.45;;;;;;;-4.09;100.00;103468.00;6249846;28;20460;-78
2024/01/09 10:55:33;;;;;;;5.43;2.42;;;;;;;-4.08;100.00;103461.16;6249731;28;20077;-78
2024/01/09 10:58:35;;;;;;;6.32;2.40;;;;;;;-4.03;100.00;103459.72;6250145;28;20128;-78
2024/01/09 11:01:37;;;;;;;12.68;2.53;;;;;;;-4.09;100.00;103457.72;6249647;28;20076;-78
2024/01/09 11:04:39;;;;;;;6.25;2.45;;;;;;;-4.03;100.00;103452.00;6249761;28;20362;-78
2024/01/09 11:07:44;;;;;;;6.43;2.60;;;;;;;-4.05;100.00;103443.34;6248387;28;20080;-78
2024/01/09 11:10:47;;;;;;;9.50;3.60;;;;;;;-3.90;100.00;103436.41;6267293;28;20056;-78
2024/01/09 11:13:53;;;;;;;8.88;3.85;;;;;;;-3.74;100.00;103434.56;6274526;28;20049;-78
2024/01/09 11:16:57;;;;;;;7.18;3.03;;;;;;;-3.80;100.00;103430.03;6274041;28;20349;-77
2024/01/09 11:19:58;;;;;;;7.00;1.63;;;;;;;-3.78;100.00;103427.53;6275017;28;20049;-75
2024/01/09 11:23:01;;;;;;;8.95;3.08;;;;;;;-3.71;100.00;103427.03;6258528;28;20060;-76
2024/01/09 11:26:03;;;;;;;5.80;2.85;;;;;;;-3.67;100.00;103424.69;6249721;28;20046;-82
2024/01/09 11:29:05;;;;;;;7.55;2.13;;;;;;;-3.62;100.00;103427.47;6250060;28;20053;-79
2024/01/09 11:32:08;;;;;;;8.50;2.40;;;;;;;-3.54;100.00;103421.03;6249190;28;20049;-80
2024/01/09 11:35:11;;;;;;;5.40;2.35;;;;;;;-3.49;100.00;103422.13;6248602;28;20053;-78
2024/01/09 11:38:14;;;;;;;5.63;2.22;;;;;;;-3.42;100.00;103416.44;6252013;28;20073;-79
2024/01/09 11:41:16;;;;;;;6.47;2.17;;;;;;;-3.28;100.00;103405.91;6271112;28;20135;-78
2024/01/09 11:44:17;;;;;;;10.77;2.85;;;;;;;-3.34;98.12;103403.94;6267087;28;20053;-78
2024/01/09 11:47:19;;;;;;;9.55;1.88;;;;;;;-3.34;99.82;103409.09;6254000;28;20048;-79
2024/01/09 11:50:20;;;;;;;6.40;2.28;;;;;;;-3.30;98.91;103405.84;6254741;28;20045;-79
2024/01/09 11:53:24;;;;;;;8.15;2.55;;;;;;;-3.30;100.00;103403.28;6254843;28;20053;-79
2024/01/09 11:56:26;;;;;;;4.68;2.17;;;;;;;-3.25;100.00;103403.50;6254317;28;20057;-78
2024/01/09 11:59:30;;;;;;;6.57;2.17;;;;;;;-3.27;100.00;103400.88;6253668;28;20076;-79
2024/01/09 12:02:33;;;;;;;4.68;1.65;;;;;;;-3.24;99.59;103403.56;6255422;28;20055;-79
2024/01/09 12:05:34;;;;;;;6.05;2.10;;;;;;;-3.15;98.26;103401.41;6277822;28;20048;-78
2024/01/09 12:08:37;;;;;;;4.63;2.72;;;;;;;-2.86;98.05;103406.97;6269495;28;20045;-79
2024/01/09 12:11:38;;;;;;;5.65;1.83;;;;;;;-2.70;94.71;103400.84;6278321;28;20049;-79
2024/01/09 12:14:40;;;;;;;2.85;1.55;;;;;;;-2.65;91.97;103415.66;6272322;28;20052;-79
2024/01/09 12:17:44;;;;;;;7.97;2.47;;;;;;;-2.46;92.51;103407.03;6269874;28;20345;-79
2024/01/09 12:20:46;;;;;;;5.22;2.72;;;;;;;-2.31;90.23;103399.13;6267822;28;20063;-79
2024/01/09 12:23:48;;;;;;;6.40;2.42;;;;;;;-2.28;88.70;103395.78;6261004;28;20053;-80
2024/01/09 12:26:51;;;;;;;4.85;1.90;;;;;;;-2.11;89.03;103399.94;6261254;28;20064;-80
2024/01/09 12:29:53;;;;;;;2.70;1.73;;;;;;;-2.24;84.86;103389.94;6280766;28;20334;-79
2024/01/09 12:32:54;;;;;;;5.78;1.80;;;;;;;-2.13;84.37;103391.28;6281576;28;20052;-81
2024/01/09 12:35:57;;;;;;;3.17;1.50;;;;;;;-2.09;81.11;103382.84;6273142;28;20048;-81
2024/01/09 12:38:59;;;;;;;3.03;1.23;;;;;;;-2.04;82.20;103383.94;6278905;28;20052;-80
2024/01/09 12:42:08;;;;;;;4.88;1.77;;;;;;;-2.48;82.59;103382.94;6277624;28;20056;-81
2024/01/09 12:45:10;;;;;;;3.85;1.35;;;;;;;-2.41;83.35;103372.06;6277395;28;20055;-81
2024/01/09 12:48:12;;;;;;;11.52;1.50;;;;;;;-2.58;83.18;103383.38;6277530;28;20132;-80
2024/01/09 12:51:14;;;;;;;7.50;1.50;;;;;;;-2.68;82.56;103374.38;6277699;28;20052;-80
2024/01/09 12:54:18;;;;;;;2.20;1.13;;;;;;;-2.64;82.76;103376.22;6277000;28;20056;-80
2024/01/09 12:57:19;;;;;;;2.67;1.30;;;;;;;-2.75;81.93;103361.16;6276818;28;20562;-81
2024/01/09 13:00:21;;;;;;;3.75;1.63;;;;;;;-2.66;85.08;103365.00;6277146;28;20686;-79
2024/01/09 13:03:22;;;;;;;1.67;1.23;;;;;;;-2.69;86.19;103366.56;6274614;28;20120;-79
2024/01/09 13:06:24;;;;;;;4.80;0.95;;;;;;;-2.66;86.51;103362.44;6276055;28;20076;-78
2024/01/09 13:09:26;;;;;;;4.28;1.75;;;;;;;-2.71;83.14;103355.34;6277354;28;20458;-79
2024/01/09 13:12:28;;;;;;;3.80;1.80;;;;;;;-2.72;82.51;103361.31;6276958;28;20053;-78
2024/01/09 13:15:29;;;;;;;2.33;1.02;;;;;;;-2.79;84.88;103357.56;6265263;28;20136;-78
2024/01/09 13:18:30;;;;;;;2.70;1.15;;;;;;;-2.78;83.21;103356.75;6252020;28;20052;-79
2024/01/09 13:21:32;;;;;;;2.70;1.23;;;;;;;-2.72;85.22;103354.47;6251683;28;20067;-79
2024/01/09 13:24:34;;;;;;;4.38;1.48;;;;;;;-2.70;87.38;103347.66;6251838;28;20045;-79
2024/01/09 13:27:36;;;;;;;4.45;1.42;;;;;;;-2.69;86.46;103343.41;6251390;28;20049;-79
2024/01/09 13:30:37;;;;;;;4.90;1.10;;;;;;;-2.58;87.48;103335.34;6251908;28;20096;-79
2024/01/09 13:33:39;;;;;;;3.28;1.23;;;;;;;-2.54;84.11;103331.22;6251422;28;20430;-80
2024/01/09 13:36:41;;;;;;;5.55;1.35;;;;;;;-2.45;83.27;103326.44;6250764;28;20049;-80
2024/01/09 13:39:43;;;;;;;7.70;1.65;;;;;;;-2.52;81.43;103329.56;6251240;28;20366;-78
2024/01/09 13:42:45;;;;;;;3.47;1.38;;;;;;;-2.61;84.89;103327.47;6251516;28;20049;-77
2024/01/09 13:45:46;;;;;;;2.83;1.33;;;;;;;-2.61;84.42;103324.91;6251085;28;20054;-79
2024/01/09 13:48:47;;;;;;;3.08;1.35;;;;;;;-2.60;85.39;103324.09;6251353;28;20350;-78
2024/01/09 13:51:51;;;;;;;3.33;1.23;;;;;;;-2.56;82.33;103323.41;6251168;28;20056;-78
2024/01/09 13:54:54;;;;;;;5.70;1.42;;;;;;;-2.60;83.39;103328.34;6251061;28;20053;-78